Latest Coastal Weather Observations for Neptune Island

IDT60701

Issued at 2:35 am EST Thursday 21 August 2014 (issued every 10 minutes, with the page automatically refreshed every 10 minutes)

About coastal observations | Map of coastal stations | Coastal observations for TAS | Marine services | Other Formats
Station Details ID: 018115 Name: NEPTUNE ISLAND Lat: -35.34 Lon: 136.12 Height: 32.0 m
Data from the previous 72 hours. | See also: Recent months at Neptune Island
Date/Time
EST
Temp

°C
Wind Pressure Rain
since 9am
mm
Weather Cloud Vis
km
Sea
Height
m
Swell
Dir
 
Speed
knots
Gust
knots
hPa Trend Height
m
Period
s
Dir
21/02:30am 11.8 ENE 19 22 1025.5 - 0.0 - - - - - - -
21/02:00am 11.9 NE 20 23 1025.7 - 0.0 - - - - - - -
21/01:30am 11.8 ENE 19 22 1025.9 - 0.0 - - - - - - -
21/01:00am 11.9 ENE 20 23 1025.9 - 0.0 - - - - - - -
21/12:30am 11.7 E 18 22 1025.8 - 0.0 - - - - - - -
21/12:00am 11.5 E 18 22 1025.9 - 0.0 - - - - - - -
 
Date/Time
EST
Temp

°C
Wind Pressure Rain
since 9am
mm
Weather Cloud Vis
km
Sea
Height
m
Swell
Dir
 
Speed
knots
Gust
knots
hPa Trend Height
m
Period
s
Dir
20/11:30pm 11.4 E 20 24 1026.0 - 0.0 - - - - - - -
20/11:00pm 11.6 E 21 25 1026.2 - 0.0 - - - - - - -
20/10:30pm 11.7 E 21 25 1026.2 - 0.0 - - - - - - -
20/10:00pm 11.9 E 20 24 1026.2 - 0.0 - - - - - - -
20/09:30pm 11.8 E 19 24 1026.3 - 0.0 - - - - - - -
20/09:00pm 11.8 E 18 23 1026.2 - 0.0 - - - - - - -
20/08:30pm 12.0 E 20 24 1026.0 - 0.0 - - - - - - -
20/08:00pm 12.2 E 19 25 1025.9 - 0.0 - - - - - - -
20/07:30pm 12.4 ENE 19 24 1025.7 - 0.0 - - - - - - -
20/07:00pm 12.5 ENE 19 22 1025.5 - 0.0 - - - - - - -
20/06:30pm 12.4 ENE 17 21 1025.4 - 0.0 - - - - - - -
20/06:00pm 12.4 ENE 15 19 1025.3 - 0.0 - - - - - - -
20/05:30pm 12.8 ENE 13 16 1025.4 - 0.0 - - - - - - -
20/05:00pm 13.3 ENE 10 13 1025.5 - 0.0 - - - - - - -
20/04:30pm 13.6 E 12 14 1025.4 - 0.0 - - - - - - -
20/04:00pm 13.7 ENE 14 17 1025.4 - 0.0 - - - - - - -
20/03:30pm 14.1 ENE 12 14 1025.5 - 0.0 - - - - - - -
20/03:00pm 14.0 ENE 10 13 1025.8 - 0.0 - - - - - - -
20/02:30pm 13.6 ENE 11 14 1025.9 - 0.0 - - - - - - -
20/02:00pm 13.5 ENE 11 13 1026.0 - 0.0 - - - - - - -
20/01:30pm 13.0 ENE 13 15 1026.3 - 0.0 - - - - - - -
20/01:00pm 12.8 ENE 11 15 1026.7 - 0.0 - - - - - - -
20/12:30pm 12.5 E 12 14 1027.1 - 0.0 - - - - - - -
20/12:00pm 12.5 E 10 13 1027.3 - 0.0 - - - - - - -
20/11:30am 12.9 E 11 13 1027.4 - 0.0 - - - - - - -
20/11:00am 12.5 ENE 10 12 1027.6 - 0.0 - - - - - - -
20/10:30am 12.0 ENE 9 11 1027.6 - 0.0 - - - - - - -
20/10:00am 11.8 E 18 22 1027.5 - 0.0 - - - - - - -
20/09:30am 12.1 NE 9 13 1027.4 - 0.0 - - - - - - -
20/09:00am 11.5 NE 11 17 1027.4 - 0.0 - - - - - - -
20/08:30am 11.1 E 19 24 1026.9 - 0.0 - - - - - - -
20/08:00am 11.5 E 20 24 1026.4 - 0.0 - - - - - - -
20/07:30am 11.8 E 14 17 1026.2 - 0.0 - - - - - - -
20/07:00am 11.8 ENE 9 14 1025.9 - 0.0 - - - - - - -
20/06:30am 11.7 ENE 10 14 1025.8 - 0.0 - - - - - - -
20/06:00am 11.6 ENE 12 18 1025.7 - 0.0 - - - - - - -
20/05:30am 11.4 E 13 16 1025.6 - 0.0 - - - - - - -
20/05:00am 11.5 ENE 9 12 1025.7 - 0.0 - - - - - - -
20/04:30am 11.3 E 11 15 1025.6 - 0.0 - - - - - - -
20/04:00am 11.3 E 11 16 1025.6 - 0.0 - - - - - - -
20/03:30am 11.4 E 11 14 1025.8 - 0.0 - - - - - - -
20/03:00am 11.3 ESE 10 12 1025.9 - 0.0 - - - - - - -
20/02:30am 11.3 E 11 15 1026.1 - 0.0 - - - - - - -
20/02:00am 11.4 E 11 15 1026.2 - 0.0 - - - - - - -
20/01:30am 11.4 E 12 15 1026.2 - 0.0 - - - - - - -
20/01:00am 11.0 E 11 14 1026.3 - 0.0 - - - - - - -
20/12:30am 11.3 E 12 15 1026.4 - 0.0 - - - - - - -
20/12:00am 11.4 E 12 15 1026.4 - 0.0 - - - - - - -
 
Date/Time
EST
Temp

°C
Wind Pressure Rain
since 9am
mm
Weather Cloud Vis
km
Sea
Height
m
Swell
Dir
 
Speed
knots
Gust
knots
hPa Trend Height
m
Period
s
Dir
19/11:30pm 11.7 ENE 14 17 1026.5 - 0.0 - - - - - - -
19/11:00pm 11.6 E 13 16 1026.6 - 0.0 - - - - - - -
19/10:30pm 11.9 E 15 18 1026.5 - 0.0 - - - - - - -
19/10:00pm 12.1 E 16 20 1026.5 - 0.0 - - - - - - -
19/09:30pm 12.0 E 12 15 1026.4 - 0.0 - - - - - - -
19/09:00pm 11.8 E 10 13 1026.3 - 0.0 - - - - - - -
19/08:30pm 11.4 E 9 11 1026.2 - 0.0 - - - - - - -
19/08:00pm 11.3 E 8 10 1026.2 - 0.0 - - - - - - -
19/07:30pm 11.3 E 7 9 1026.2 - 0.0 - - - - - - -
19/07:00pm 11.4 E 8 11 1026.0 - 0.0 - - - - - - -
19/06:30pm 11.8 E 7 9 1025.8 - 0.0 - - - - - - -
19/06:00pm 12.5 ENE 7 8 1025.4 - 0.0 - - - - - - -
19/05:30pm 12.8 ENE 6 9 1025.2 - 0.0 - - - - - - -
19/05:00pm 13.5 NE 7 9 1025.1 - 0.0 - - - - - - -
19/04:30pm 13.8 ENE 8 10 1025.1 - 0.0 - - - - - - -
19/04:00pm 14.0 ENE 7 9 1025.1 - 0.0 - - - - - - -
19/03:30pm 13.9 NE 8 11 1025.2 - 0.0 - - - - - - -
19/03:00pm 14.3 NE 8 12 1025.1 - 0.0 - - - - - - -
19/02:30pm 13.7 ENE 8 11 1025.1 - 0.0 - - - - - - -
19/02:00pm 14.0 NE 8 11 1025.2 - 0.0 - - - - - - -
19/01:30pm 14.1 NE 9 13 1025.6 - 0.0 - - - - - - -
19/01:00pm 14.4 NE 9 12 1025.9 - 0.0 - - - - - - -
19/12:30pm 14.4 ENE 11 13 1026.1 - 0.0 - - - - - - -
19/12:00pm 13.8 NE 9 13 1026.4 - 0.0 - - - - - - -
19/11:30am 12.5 NE 9 14 1026.5 - 0.0 - - - - - - -
19/11:00am 12.0 NNE 7 10 1026.6 - 0.0 - - - - - - -
19/10:30am 12.1 NNE 8 11 1026.7 - 0.0 - - - - - - -
19/10:00am 12.0 NNE 7 11 1026.7 - 0.0 - - - - - - -
19/09:30am 12.1 NNE 7 10 1026.5 - 1.2 - - - - - - -
19/09:00am 11.7 NNE 6 8 1026.2 - 1.2 - - - - - - -
19/08:30am 11.2 ENE 7 9 1026.0 - 1.2 - - - - - - -
19/08:00am 11.4 E 10 14 1025.7 - 0.8 - - - - - - -
19/07:30am 12.2 NE 6 8 1025.3 - 0.8 - - - - - - -
19/07:00am 12.2 NNE 9 11 1025.1 - 0.8 - - - - - - -
19/06:30am 12.0 NNE 9 12 1024.9 - 0.8 - - - - - - -
19/06:00am 12.2 NNE 10 13 1024.6 - 0.8 - - - - - - -
19/05:30am 12.1 NNE 9 13 1024.5 - 0.8 - - - - - - -
19/05:00am 12.0 NNE 10 12 1024.4 - 0.8 - - - - - - -
19/04:30am 12.1 NNE 9 12 1024.5 - 0.8 - - - - - - -
19/04:00am 12.1 NNE 9 11 1024.5 - 0.8 - - - - - - -
19/03:30am 12.0 NE 7 11 1024.6 - 0.8 - - - - - - -
19/03:00am 11.9 NE 6 8 1024.9 - 0.8 - - - - - - -
19/02:30am 11.8 ENE 6 9 1025.1 - 0.8 - - - - - - -
19/02:00am 11.7 ENE 8 11 1025.2 - 0.8 - - - - - - -
19/01:30am 11.5 ENE 7 8 1025.2 - 0.8 - - - - - - -
19/01:00am 11.6 NE 7 8 1025.2 - 0.8 - - - - - - -
19/12:30am 11.3 ENE 4 6 1025.3 - 0.8 - - - - - - -
19/12:00am 11.2 E 4 5 1025.4 - 0.8 - - - - - - -
 
Date/Time
EST
Temp

°C
Wind Pressure Rain
since 9am
mm
Weather Cloud Vis
km
Sea
Height
m
Swell
Dir
 
Speed
knots
Gust
knots
hPa Trend Height
m
Period
s
Dir
18/11:30pm 10.9 ESE 5 6 1025.4 - 0.8 - - - - - - -
18/11:00pm 11.5 SSE 4 6 1025.6 - 0.8 - - - - - - -
18/10:30pm 11.2 SE 5 7 1025.5 - 0.8 - - - - - - -
18/10:00pm 11.3 ESE 6 7 1025.6 - 0.8 - - - - - - -
18/09:30pm 10.9 E 6 7 1025.5 - 0.8 Recent precip. - - - - - -
18/09:00pm 11.4 ESE 8 9 1025.3 - 0.8 - - - - - - -
18/08:30pm 11.4 SE 11 14 1025.0 - 0.6 - - - - - - -
18/08:00pm 11.4 S 14 17 1024.8 - 0.6 - - - - - - -
18/07:30pm 12.9 SSE 8 11 1024.6 - 0.0 - - - - - - -
18/07:00pm 12.9 S 9 11 1024.5 - 0.0 - - - - - - -
18/06:30pm 12.7 S 9 12 1024.2 - 0.0 - - - - - - -
18/06:00pm 12.8 S 9 12 1023.9 - 0.0 - - - - - - -
18/05:30pm 13.3 S 11 14 1023.8 - 0.0 - - - - - - -
18/05:00pm 13.4 S 9 12 1023.7 - 0.0 - - - - - - -
18/04:30pm 14.0 S 9 11 1023.5 - 0.0 - - - - - - -
18/04:00pm 13.8 SSE 9 11 1023.4 - 0.0 - - - - - - -
18/03:30pm 14.6 SSE 10 12 1023.3 - 0.0 - - - - - - -
18/03:00pm 14.1 S 11 14 1023.3 - 0.0 - - - - - - -
18/02:30pm 14.2 S 12 15 1023.3 - 0.0 - - - - - - -
18/02:00pm 15.0 S 11 14 1023.6 - 0.0 - - - - - - -
18/01:30pm 14.3 S 10 13 1023.8 - 0.0 - - - - - - -
18/01:00pm 14.7 S 11 14 1024.1 - 0.0 - - - - - - -
18/12:30pm 14.2 S 11 13 1024.6 - 0.0 - - - - - - -
18/12:00pm 14.0 S 11 14 1024.7 - 0.0 - - - - - - -
18/11:30am 14.5 SSE 12 14 1024.9 - 0.0 - - - - - - -
18/11:00am 14.4 S 13 14 1024.9 - 0.0 - - - - - - -
18/10:30am 14.2 S 10 13 1025.0 - 0.0 - - - - - - -
18/10:00am 13.7 S 13 15 1025.0 - 0.0 - - - - - - -
18/09:30am 13.3 S 15 18 1024.9 - 0.0 - - - - - - -
18/09:00am 13.2 S 15 19 1024.8 - 0.0 - - - - - - -
18/08:30am 13.1 S 12 15 1024.7 - 0.0 - - - - - - -
18/08:00am 12.8 S 13 15 1024.5 - 0.0 - - - - - - -
18/07:30am 12.6 SSW 12 15 1024.2 - 0.0 - - - - - - -
18/07:00am 12.7 S 13 16 1024.0 - 0.0 - - - - - - -
18/06:30am 12.5 WSW 15 17 1023.8 - 0.0 - - - - - - -
18/06:00am 12.8 SSW 12 15 1023.6 - 0.0 - - - - - - -
18/05:30am 13.0 SSW 15 19 1023.5 - 0.0 - - - - - - -
18/05:00am 13.0 SSW 17 21 1023.3 - 0.0 - - - - - - -
18/04:30am 12.9 SSW 15 16 1023.4 - 0.0 - - - - - - -
18/04:00am 12.8 SSW 15 18 1023.4 - 0.0 - - - - - - -
18/03:30am 12.8 S 12 15 1023.6 - 0.0 - - - - - - -

Other Formats:

Comma delimited format used in spreadsheet applications
http://www.bom.gov.au/fwo/IDT60701/IDT60701.94804.axf

JavaScript Object Notation format (JSON) in row-major order
http://www.bom.gov.au/fwo/IDT60701/IDT60701.94804.json